sensor_id;sensor_type;location;lat;lon;timestamp;pressure;altitude;pressure_sealevel;temperature
33267;BMP180;19638;49.080;11.896;2023-02-28T00:03:25;96912.00;;;-1.40
33267;BMP180;19638;49.080;11.896;2023-02-28T00:07:28;96928.00;;;-1.40
33267;BMP180;19638;49.080;11.896;2023-02-28T00:11:34;96926.00;;;-1.40
33267;BMP180;19638;49.080;11.896;2023-02-28T00:15:42;96918.00;;;-1.40
33267;BMP180;19638;49.080;11.896;2023-02-28T00:19:49;96910.00;;;-1.40
33267;BMP180;19638;49.080;11.896;2023-02-28T00:23:52;96913.00;;;-1.40
33267;BMP180;19638;49.080;11.896;2023-02-28T00:27:56;96906.00;;;-1.40
33267;BMP180;19638;49.080;11.896;2023-02-28T00:31:59;96913.00;;;-1.50
33267;BMP180;19638;49.080;11.896;2023-02-28T00:36:05;96904.00;;;-1.60
33267;BMP180;19638;49.080;11.896;2023-02-28T00:40:11;96901.00;;;-1.60
33267;BMP180;19638;49.080;11.896;2023-02-28T00:44:16;96907.00;;;-1.70
33267;BMP180;19638;49.080;11.896;2023-02-28T00:48:19;96905.00;;;-1.70
33267;BMP180;19638;49.080;11.896;2023-02-28T00:52:22;96908.00;;;-1.80
33267;BMP180;19638;49.080;11.896;2023-02-28T00:56:25;96900.00;;;-1.80
33267;BMP180;19638;49.080;11.896;2023-02-28T01:00:32;96895.00;;;-1.80
33267;BMP180;19638;49.080;11.896;2023-02-28T01:04:37;96888.00;;;-1.80
33267;BMP180;19638;49.080;11.896;2023-02-28T01:08:42;96877.00;;;-1.90
33267;BMP180;19638;49.080;11.896;2023-02-28T01:12:45;96875.00;;;-2.00
33267;BMP180;19638;49.080;11.896;2023-02-28T01:16:52;96876.00;;;-2.00
33267;BMP180;19638;49.080;11.896;2023-02-28T01:20:58;96884.00;;;-2.00
33267;BMP180;19638;49.080;11.896;2023-02-28T01:25:06;96883.00;;;-2.10
33267;BMP180;19638;49.080;11.896;2023-02-28T01:29:09;96885.00;;;-2.10
33267;BMP180;19638;49.080;11.896;2023-02-28T01:33:19;96885.00;;;-2.10
33267;BMP180;19638;49.080;11.896;2023-02-28T01:37:22;96876.00;;;-2.10
33267;BMP180;19638;49.080;11.896;2023-02-28T01:41:30;96884.00;;;-2.20
33267;BMP180;19638;49.080;11.896;2023-02-28T01:45:36;96878.00;;;-2.20
33267;BMP180;19638;49.080;11.896;2023-02-28T01:49:42;96871.00;;;-2.30
33267;BMP180;19638;49.080;11.896;2023-02-28T01:53:47;96884.00;;;-2.30
33267;BMP180;19638;49.080;11.896;2023-02-28T01:58:00;96875.00;;;-2.30
33267;BMP180;19638;49.080;11.896;2023-02-28T02:02:04;96874.00;;;-2.30
33267;BMP180;19638;49.080;11.896;2023-02-28T02:06:14;96867.00;;;-2.30
33267;BMP180;19638;49.080;11.896;2023-02-28T02:10:19;96861.00;;;-2.40
33267;BMP180;19638;49.080;11.896;2023-02-28T02:14:43;96853.00;;;-2.40
33267;BMP180;19638;49.080;11.896;2023-02-28T02:19:00;96854.00;;;-2.40
33267;BMP180;19638;49.080;11.896;2023-02-28T02:23:33;96855.00;;;-2.40
33267;BMP180;19638;49.080;11.896;2023-02-28T02:28:04;96858.00;;;-2.40
33267;BMP180;19638;49.080;11.896;2023-02-28T02:37:08;96859.00;;;-2.40
33267;BMP180;19638;49.080;11.896;2023-02-28T02:41:16;96856.00;;;-2.50
33267;BMP180;19638;49.080;11.896;2023-02-28T02:45:25;96862.00;;;-2.50
33267;BMP180;19638;49.080;11.896;2023-02-28T02:49:35;96862.00;;;-2.50
33267;BMP180;19638;49.080;11.896;2023-02-28T02:53:43;96864.00;;;-2.50
33267;BMP180;19638;49.080;11.896;2023-02-28T02:57:54;96865.00;;;-2.50
33267;BMP180;19638;49.080;11.896;2023-02-28T03:02:01;96869.00;;;-2.50
33267;BMP180;19638;49.080;11.896;2023-02-28T03:06:08;96870.00;;;-2.50
33267;BMP180;19638;49.080;11.896;2023-02-28T03:10:38;96866.00;;;-2.50
33267;BMP180;19638;49.080;11.896;2023-02-28T03:14:51;96865.00;;;-2.60
33267;BMP180;19638;49.080;11.896;2023-02-28T03:19:06;96863.00;;;-2.60
33267;BMP180;19638;49.080;11.896;2023-02-28T03:23:17;96861.00;;;-2.60
33267;BMP180;19638;49.080;11.896;2023-02-28T03:27:27;96863.00;;;-2.60
33267;BMP180;19638;49.080;11.896;2023-02-28T03:31:35;96867.00;;;-2.60
33267;BMP180;19638;49.080;11.896;2023-02-28T03:35:42;96860.00;;;-2.60
33267;BMP180;19638;49.080;11.896;2023-02-28T03:39:51;96862.00;;;-2.60
33267;BMP180;19638;49.080;11.896;2023-02-28T03:44:02;96866.00;;;-2.70
33267;BMP180;19638;49.080;11.896;2023-02-28T03:48:11;96867.00;;;-2.70
33267;BMP180;19638;49.080;11.896;2023-02-28T03:52:18;96867.00;;;-2.70
33267;BMP180;19638;49.080;11.896;2023-02-28T03:56:27;96869.00;;;-2.70
33267;BMP180;19638;49.080;11.896;2023-02-28T04:00:40;96868.00;;;-2.70
33267;BMP180;19638;49.080;11.896;2023-02-28T04:04:46;96867.00;;;-2.70
33267;BMP180;19638;49.080;11.896;2023-02-28T04:08:52;96873.00;;;-2.70
33267;BMP180;19638;49.080;11.896;2023-02-28T04:12:58;96871.00;;;-2.70
33267;BMP180;19638;49.080;11.896;2023-02-28T04:17:02;96878.00;;;-2.70
33267;BMP180;19638;49.080;11.896;2023-02-28T04:21:06;96871.00;;;-2.80
33267;BMP180;19638;49.080;11.896;2023-02-28T04:25:10;96874.00;;;-2.80
33267;BMP180;19638;49.080;11.896;2023-02-28T04:29:19;96877.00;;;-2.80
33267;BMP180;19638;49.080;11.896;2023-02-28T04:33:24;96871.00;;;-2.70
33267;BMP180;19638;49.080;11.896;2023-02-28T04:37:30;96873.00;;;-2.70
33267;BMP180;19638;49.080;11.896;2023-02-28T04:41:37;96869.00;;;-2.70
33267;BMP180;19638;49.080;11.896;2023-02-28T04:45:43;96872.00;;;-2.70
33267;BMP180;19638;49.080;11.896;2023-02-28T04:49:51;96867.00;;;-2.70
33267;BMP180;19638;49.080;11.896;2023-02-28T04:53:56;96870.00;;;-2.70
33267;BMP180;19638;49.080;11.896;2023-02-28T04:58:01;96867.00;;;-2.70
33267;BMP180;19638;49.080;11.896;2023-02-28T05:02:04;96876.00;;;-2.70
33267;BMP180;19638;49.080;11.896;2023-02-28T05:06:14;96877.00;;;-2.70
33267;BMP180;19638;49.080;11.896;2023-02-28T05:10:19;96872.00;;;-2.70
33267;BMP180;19638;49.080;11.896;2023-02-28T05:14:22;96881.00;;;-2.70
33267;BMP180;19638;49.080;11.896;2023-02-28T05:18:28;96885.00;;;-2.70
33267;BMP180;19638;49.080;11.896;2023-02-28T05:22:32;96879.00;;;-2.70
33267;BMP180;19638;49.080;11.896;2023-02-28T05:26:37;96879.00;;;-2.70
33267;BMP180;19638;49.080;11.896;2023-02-28T05:30:40;96890.00;;;-2.70
33267;BMP180;19638;49.080;11.896;2023-02-28T05:34:50;96889.00;;;-2.70
33267;BMP180;19638;49.080;11.896;2023-02-28T05:38:55;96890.00;;;-2.70
33267;BMP180;19638;49.080;11.896;2023-02-28T05:42:59;96886.00;;;-2.70
33267;BMP180;19638;49.080;11.896;2023-02-28T05:47:02;96885.00;;;-2.70
33267;BMP180;19638;49.080;11.896;2023-02-28T05:51:08;96888.00;;;-2.70
33267;BMP180;19638;49.080;11.896;2023-02-28T05:55:13;96889.00;;;-2.60
33267;BMP180;19638;49.080;11.896;2023-02-28T05:59:16;96889.00;;;-2.60
33267;BMP180;19638;49.080;11.896;2023-02-28T06:03:20;96889.00;;;-2.70
33267;BMP180;19638;49.080;11.896;2023-02-28T06:07:23;96894.00;;;-2.60
33267;BMP180;19638;49.080;11.896;2023-02-28T06:11:27;96901.00;;;-2.60
33267;BMP180;19638;49.080;11.896;2023-02-28T06:15:33;96900.00;;;-2.60
33267;BMP180;19638;49.080;11.896;2023-02-28T06:19:37;96907.00;;;-2.60
33267;BMP180;19638;49.080;11.896;2023-02-28T06:23:42;96912.00;;;-2.50
33267;BMP180;19638;49.080;11.896;2023-02-28T06:27:47;96915.00;;;-2.40
33267;BMP180;19638;49.080;11.896;2023-02-28T06:31:51;96916.00;;;-2.40
33267;BMP180;19638;49.080;11.896;2023-02-28T06:35:54;96920.00;;;-2.20
33267;BMP180;19638;49.080;11.896;2023-02-28T06:39:57;96924.00;;;-2.20
33267;BMP180;19638;49.080;11.896;2023-02-28T06:44:03;96931.00;;;-2.10
33267;BMP180;19638;49.080;11.896;2023-02-28T06:48:07;96933.00;;;-2.00
33267;BMP180;19638;49.080;11.896;2023-02-28T06:52:12;96936.00;;;-2.00
33267;BMP180;19638;49.080;11.896;2023-02-28T06:56:16;96935.00;;;-1.80
33267;BMP180;19638;49.080;11.896;2023-02-28T07:00:24;96940.00;;;-1.70
33267;BMP180;19638;49.080;11.896;2023-02-28T07:04:27;96933.00;;;-1.60
33267;BMP180;19638;49.080;11.896;2023-02-28T07:08:33;96934.00;;;-1.50
33267;BMP180;19638;49.080;11.896;2023-02-28T07:12:41;96940.00;;;-1.30
33267;BMP180;19638;49.080;11.896;2023-02-28T07:16:46;96942.00;;;-1.20
33267;BMP180;19638;49.080;11.896;2023-02-28T07:20:52;96942.00;;;-1.10
33267;BMP180;19638;49.080;11.896;2023-02-28T07:24:55;96951.00;;;-1.00
33267;BMP180;19638;49.080;11.896;2023-02-28T07:28:58;96945.00;;;-0.90
33267;BMP180;19638;49.080;11.896;2023-02-28T07:33:03;96943.00;;;-0.80
33267;BMP180;19638;49.080;11.896;2023-02-28T07:37:06;96945.00;;;-0.70
33267;BMP180;19638;49.080;11.896;2023-02-28T07:41:10;96942.00;;;-0.50
33267;BMP180;19638;49.080;11.896;2023-02-28T07:45:13;96954.00;;;-0.50
33267;BMP180;19638;49.080;11.896;2023-02-28T07:49:17;96943.00;;;-0.40
33267;BMP180;19638;49.080;11.896;2023-02-28T07:53:20;96958.00;;;-0.30
33267;BMP180;19638;49.080;11.896;2023-02-28T07:57:25;96961.00;;;-0.10
33267;BMP180;19638;49.080;11.896;2023-02-28T08:01:28;96950.00;;;0.00
33267;BMP180;19638;49.080;11.896;2023-02-28T08:05:39;96944.00;;;0.10
33267;BMP180;19638;49.080;11.896;2023-02-28T08:09:43;96958.00;;;0.20
33267;BMP180;19638;49.080;11.896;2023-02-28T08:13:47;96963.00;;;0.30
33267;BMP180;19638;49.080;11.896;2023-02-28T08:17:55;96949.00;;;0.40
33267;BMP180;19638;49.080;11.896;2023-02-28T08:22:00;96960.00;;;0.40
33267;BMP180;19638;49.080;11.896;2023-02-28T08:26:04;96965.00;;;0.50
33267;BMP180;19638;49.080;11.896;2023-02-28T08:30:10;96972.00;;;0.60
33267;BMP180;19638;49.080;11.896;2023-02-28T08:34:15;96967.00;;;0.70
33267;BMP180;19638;49.080;11.896;2023-02-28T08:38:20;96964.00;;;0.80
33267;BMP180;19638;49.080;11.896;2023-02-28T08:42:23;96964.00;;;0.80
33267;BMP180;19638;49.080;11.896;2023-02-28T08:46:30;96975.00;;;1.00
33267;BMP180;19638;49.080;11.896;2023-02-28T08:50:33;96984.00;;;1.10
33267;BMP180;19638;49.080;11.896;2023-02-28T08:54:40;96989.00;;;1.10
33267;BMP180;19638;49.080;11.896;2023-02-28T08:58:44;96985.00;;;1.20
33267;BMP180;19638;49.080;11.896;2023-02-28T09:02:48;96990.00;;;1.20
33267;BMP180;19638;49.080;11.896;2023-02-28T09:06:51;97001.00;;;1.40
33267;BMP180;19638;49.080;11.896;2023-02-28T09:10:56;96978.00;;;1.50
33267;BMP180;19638;49.080;11.896;2023-02-28T09:15:09;96991.00;;;1.50
33267;BMP180;19638;49.080;11.896;2023-02-28T09:19:14;96998.00;;;1.50
33267;BMP180;19638;49.080;11.896;2023-02-28T09:23:18;96988.00;;;1.60
33267;BMP180;19638;49.080;11.896;2023-02-28T09:27:25;96976.00;;;1.70
33267;BMP180;19638;49.080;11.896;2023-02-28T09:31:30;96981.00;;;1.90
33267;BMP180;19638;49.080;11.896;2023-02-28T09:35:33;96983.00;;;2.10
33267;BMP180;19638;49.080;11.896;2023-02-28T09:39:39;96986.00;;;2.20
33267;BMP180;19638;49.080;11.896;2023-02-28T09:43:48;96988.00;;;2.20
33267;BMP180;19638;49.080;11.896;2023-02-28T09:47:54;96990.00;;;2.20
33267;BMP180;19638;49.080;11.896;2023-02-28T09:52:04;96983.00;;;2.30
33267;BMP180;19638;49.080;11.896;2023-02-28T09:56:14;96993.00;;;2.50
33267;BMP180;19638;49.080;11.896;2023-02-28T10:00:22;96992.00;;;2.60
33267;BMP180;19638;49.080;11.896;2023-02-28T10:04:43;97002.00;;;2.60
33267;BMP180;19638;49.080;11.896;2023-02-28T10:08:58;96993.00;;;2.70
33267;BMP180;19638;49.080;11.896;2023-02-28T10:13:06;96996.00;;;2.70
33267;BMP180;19638;49.080;11.896;2023-02-28T10:17:18;97003.00;;;2.80
33267;BMP180;19638;49.080;11.896;2023-02-28T10:21:27;97002.00;;;2.80
33267;BMP180;19638;49.080;11.896;2023-02-28T10:25:34;97005.00;;;3.00
33267;BMP180;19638;49.080;11.896;2023-02-28T10:29:51;97001.00;;;3.40
33267;BMP180;19638;49.080;11.896;2023-02-28T10:34:01;97008.00;;;3.50
33267;BMP180;19638;49.080;11.896;2023-02-28T10:38:17;97013.00;;;3.50
33267;BMP180;19638;49.080;11.896;2023-02-28T10:42:23;96999.00;;;3.50
33267;BMP180;19638;49.080;11.896;2023-02-28T10:46:29;97002.00;;;3.50
33267;BMP180;19638;49.080;11.896;2023-02-28T10:50:46;97002.00;;;3.70
33267;BMP180;19638;49.080;11.896;2023-02-28T10:55:14;97019.00;;;4.10
33267;BMP180;19638;49.080;11.896;2023-02-28T10:59:29;97014.00;;;4.40
33267;BMP180;19638;49.080;11.896;2023-02-28T11:03:34;97021.00;;;4.50
33267;BMP180;19638;49.080;11.896;2023-02-28T11:07:38;97016.00;;;4.60
33267;BMP180;19638;49.080;11.896;2023-02-28T11:11:54;97004.00;;;4.80
33267;BMP180;19638;49.080;11.896;2023-02-28T11:15:59;97013.00;;;5.00
33267;BMP180;19638;49.080;11.896;2023-02-28T11:20:21;97015.00;;;5.00
33267;BMP180;19638;49.080;11.896;2023-02-28T11:24:27;97018.00;;;4.90
33267;BMP180;19638;49.080;11.896;2023-02-28T11:28:32;97003.00;;;4.70
33267;BMP180;19638;49.080;11.896;2023-02-28T11:32:36;97008.00;;;4.60
33267;BMP180;19638;49.080;11.896;2023-02-28T11:36:41;96999.00;;;4.70
33267;BMP180;19638;49.080;11.896;2023-02-28T11:41:02;97012.00;;;4.80
33267;BMP180;19638;49.080;11.896;2023-02-28T11:45:16;97012.00;;;4.50
33267;BMP180;19638;49.080;11.896;2023-02-28T11:49:32;97014.00;;;4.40
33267;BMP180;19638;49.080;11.896;2023-02-28T11:58:35;97006.00;;;4.70
33267;BMP180;19638;49.080;11.896;2023-02-28T12:02:59;97005.00;;;4.70
33267;BMP180;19638;49.080;11.896;2023-02-28T12:07:09;97006.00;;;4.70
33267;BMP180;19638;49.080;11.896;2023-02-28T12:11:24;96999.00;;;4.80
33267;BMP180;19638;49.080;11.896;2023-02-28T12:15:53;97011.00;;;4.70
33267;BMP180;19638;49.080;11.896;2023-02-28T12:20:05;97005.00;;;4.50
33267;BMP180;19638;49.080;11.896;2023-02-28T12:29:00;97002.00;;;4.30
33267;BMP180;19638;49.080;11.896;2023-02-28T12:33:11;97003.00;;;4.40
33267;BMP180;19638;49.080;11.896;2023-02-28T12:37:21;96984.00;;;4.30
33267;BMP180;19638;49.080;11.896;2023-02-28T12:41:31;96974.00;;;4.30
33267;BMP180;19638;49.080;11.896;2023-02-28T12:45:41;96988.00;;;4.40
33267;BMP180;19638;49.080;11.896;2023-02-28T12:49:53;96978.00;;;4.40
33267;BMP180;19638;49.080;11.896;2023-02-28T12:54:07;96969.00;;;4.50
33267;BMP180;19638;49.080;11.896;2023-02-28T12:58:19;96978.00;;;4.50
33267;BMP180;19638;49.080;11.896;2023-02-28T13:07:20;96960.00;;;4.50
33267;BMP180;19638;49.080;11.896;2023-02-28T13:11:33;96974.00;;;4.50
33267;BMP180;19638;49.080;11.896;2023-02-28T13:15:57;96965.00;;;4.50
33267;BMP180;19638;49.080;11.896;2023-02-28T13:20:01;96972.00;;;4.50
33267;BMP180;19638;49.080;11.896;2023-02-28T13:24:08;96977.00;;;4.40
33267;BMP180;19638;49.080;11.896;2023-02-28T13:28:13;96976.00;;;4.40
33267;BMP180;19638;49.080;11.896;2023-02-28T13:32:36;96978.00;;;4.40
33267;BMP180;19638;49.080;11.896;2023-02-28T13:36:40;96966.00;;;4.40
33267;BMP180;19638;49.080;11.896;2023-02-28T13:40:47;96973.00;;;4.50
33267;BMP180;19638;49.080;11.896;2023-02-28T13:45:25;96970.00;;;4.60
33267;BMP180;19638;49.080;11.896;2023-02-28T13:49:30;96973.00;;;4.60
33267;BMP180;19638;49.080;11.896;2023-02-28T13:53:59;96967.00;;;4.70
33267;BMP180;19638;49.080;11.896;2023-02-28T13:58:34;96969.00;;;4.80
33267;BMP180;19638;49.080;11.896;2023-02-28T14:03:08;96974.00;;;4.90
33267;BMP180;19638;49.080;11.896;2023-02-28T14:07:21;96967.00;;;5.00
33267;BMP180;19638;49.080;11.896;2023-02-28T14:11:29;96963.00;;;5.10
33267;BMP180;19638;49.080;11.896;2023-02-28T14:15:44;96961.00;;;5.00
33267;BMP180;19638;49.080;11.896;2023-02-28T14:19:48;96961.00;;;5.00
33267;BMP180;19638;49.080;11.896;2023-02-28T14:24:10;96959.00;;;5.00
33267;BMP180;19638;49.080;11.896;2023-02-28T14:28:27;96968.00;;;4.90
33267;BMP180;19638;49.080;11.896;2023-02-28T14:32:45;96963.00;;;4.90
33267;BMP180;19638;49.080;11.896;2023-02-28T14:36:57;96969.00;;;5.00
33267;BMP180;19638;49.080;11.896;2023-02-28T14:41:04;96950.00;;;5.00
33267;BMP180;19638;49.080;11.896;2023-02-28T14:45:18;96956.00;;;4.90
33267;BMP180;19638;49.080;11.896;2023-02-28T14:49:27;96964.00;;;4.90
33267;BMP180;19638;49.080;11.896;2023-02-28T14:53:36;96966.00;;;4.90
33267;BMP180;19638;49.080;11.896;2023-02-28T14:57:41;96965.00;;;5.00
33267;BMP180;19638;49.080;11.896;2023-02-28T15:01:51;96959.00;;;5.10
33267;BMP180;19638;49.080;11.896;2023-02-28T15:06:00;96970.00;;;5.30
33267;BMP180;19638;49.080;11.896;2023-02-28T15:10:16;96967.00;;;5.20
33267;BMP180;19638;49.080;11.896;2023-02-28T15:14:22;96967.00;;;5.20
33267;BMP180;19638;49.080;11.896;2023-02-28T15:18:31;96972.00;;;5.10
33267;BMP180;19638;49.080;11.896;2023-02-28T15:22:37;96963.00;;;5.00
33267;BMP180;19638;49.080;11.896;2023-02-28T15:26:45;96963.00;;;4.90
33267;BMP180;19638;49.080;11.896;2023-02-28T15:30:58;96965.00;;;4.80
33267;BMP180;19638;49.080;11.896;2023-02-28T15:35:20;96957.00;;;4.70
33267;BMP180;19638;49.080;11.896;2023-02-28T15:39:28;96964.00;;;4.60
33267;BMP180;19638;49.080;11.896;2023-02-28T15:43:33;96965.00;;;4.50
33267;BMP180;19638;49.080;11.896;2023-02-28T15:47:36;96972.00;;;4.40
33267;BMP180;19638;49.080;11.896;2023-02-28T15:51:39;96962.00;;;4.30
33267;BMP180;19638;49.080;11.896;2023-02-28T15:55:44;96966.00;;;4.10
33267;BMP180;19638;49.080;11.896;2023-02-28T15:59:53;96971.00;;;4.00
33267;BMP180;19638;49.080;11.896;2023-02-28T16:03:59;96960.00;;;3.90
33267;BMP180;19638;49.080;11.896;2023-02-28T16:08:13;96970.00;;;3.80
33267;BMP180;19638;49.080;11.896;2023-02-28T16:12:20;96982.00;;;3.70
33267;BMP180;19638;49.080;11.896;2023-02-28T16:16:31;96977.00;;;3.60
33267;BMP180;19638;49.080;11.896;2023-02-28T16:20:37;96976.00;;;3.40
33267;BMP180;19638;49.080;11.896;2023-02-28T16:24:41;96983.00;;;3.40
33267;BMP180;19638;49.080;11.896;2023-02-28T16:28:51;96986.00;;;3.30
33267;BMP180;19638;49.080;11.896;2023-02-28T16:32:55;96989.00;;;3.20
33267;BMP180;19638;49.080;11.896;2023-02-28T16:37:00;96984.00;;;3.10
33267;BMP180;19638;49.080;11.896;2023-02-28T16:41:05;96999.00;;;3.00
33267;BMP180;19638;49.080;11.896;2023-02-28T16:45:16;97003.00;;;2.90
33267;BMP180;19638;49.080;11.896;2023-02-28T16:49:21;96996.00;;;2.80
33267;BMP180;19638;49.080;11.896;2023-02-28T16:53:24;97002.00;;;2.70
33267;BMP180;19638;49.080;11.896;2023-02-28T16:57:32;97010.00;;;2.70
33267;BMP180;19638;49.080;11.896;2023-02-28T17:01:37;97013.00;;;2.60
33267;BMP180;19638;49.080;11.896;2023-02-28T17:05:42;97019.00;;;2.50
33267;BMP180;19638;49.080;11.896;2023-02-28T17:09:45;97017.00;;;2.40
33267;BMP180;19638;49.080;11.896;2023-02-28T17:13:49;97026.00;;;2.40
33267;BMP180;19638;49.080;11.896;2023-02-28T17:17:53;97027.00;;;2.40
33267;BMP180;19638;49.080;11.896;2023-02-28T17:21:56;97040.00;;;2.30
33267;BMP180;19638;49.080;11.896;2023-02-28T17:26:00;97040.00;;;2.30
33267;BMP180;19638;49.080;11.896;2023-02-28T17:30:10;97039.00;;;2.30
33267;BMP180;19638;49.080;11.896;2023-02-28T17:34:18;97043.00;;;2.30
33267;BMP180;19638;49.080;11.896;2023-02-28T17:38:21;97039.00;;;2.30
33267;BMP180;19638;49.080;11.896;2023-02-28T17:42:27;97042.00;;;2.30
33267;BMP180;19638;49.080;11.896;2023-02-28T17:46:33;97045.00;;;2.30
33267;BMP180;19638;49.080;11.896;2023-02-28T17:50:39;97042.00;;;2.30
33267;BMP180;19638;49.080;11.896;2023-02-28T17:54:42;97047.00;;;2.30
33267;BMP180;19638;49.080;11.896;2023-02-28T17:58:47;97053.00;;;2.30
33267;BMP180;19638;49.080;11.896;2023-02-28T18:02:50;97051.00;;;2.30
33267;BMP180;19638;49.080;11.896;2023-02-28T18:06:55;97053.00;;;2.30
33267;BMP180;19638;49.080;11.896;2023-02-28T18:11:03;97041.00;;;2.30
33267;BMP180;19638;49.080;11.896;2023-02-28T18:15:07;97038.00;;;2.30
33267;BMP180;19638;49.080;11.896;2023-02-28T18:19:13;97042.00;;;2.30
33267;BMP180;19638;49.080;11.896;2023-02-28T18:23:22;97048.00;;;2.30
33267;BMP180;19638;49.080;11.896;2023-02-28T18:27:25;97045.00;;;2.20
33267;BMP180;19638;49.080;11.896;2023-02-28T18:31:28;97047.00;;;2.20
33267;BMP180;19638;49.080;11.896;2023-02-28T18:35:34;97048.00;;;2.20
33267;BMP180;19638;49.080;11.896;2023-02-28T18:39:40;97035.00;;;2.10
33267;BMP180;19638;49.080;11.896;2023-02-28T18:43:45;97031.00;;;1.90
33267;BMP180;19638;49.080;11.896;2023-02-28T18:47:48;97029.00;;;1.80
33267;BMP180;19638;49.080;11.896;2023-02-28T18:51:53;97031.00;;;1.70
33267;BMP180;19638;49.080;11.896;2023-02-28T18:56:00;97033.00;;;1.70
33267;BMP180;19638;49.080;11.896;2023-02-28T19:00:07;97038.00;;;1.60
33267;BMP180;19638;49.080;11.896;2023-02-28T19:04:12;97030.00;;;1.60
33267;BMP180;19638;49.080;11.896;2023-02-28T19:08:15;97037.00;;;1.50
33267;BMP180;19638;49.080;11.896;2023-02-28T19:12:20;97039.00;;;1.40
33267;BMP180;19638;49.080;11.896;2023-02-28T19:16:24;97041.00;;;1.40
33267;BMP180;19638;49.080;11.896;2023-02-28T19:20:31;97029.00;;;1.40
33267;BMP180;19638;49.080;11.896;2023-02-28T19:24:34;97044.00;;;1.30
33267;BMP180;19638;49.080;11.896;2023-02-28T19:28:39;97036.00;;;1.30
33267;BMP180;19638;49.080;11.896;2023-02-28T19:32:43;97035.00;;;1.30
33267;BMP180;19638;49.080;11.896;2023-02-28T19:36:51;97040.00;;;1.20
33267;BMP180;19638;49.080;11.896;2023-02-28T19:41:01;97035.00;;;1.20
33267;BMP180;19638;49.080;11.896;2023-02-28T19:45:08;97028.00;;;1.10
33267;BMP180;19638;49.080;11.896;2023-02-28T19:49:15;97033.00;;;1.10
33267;BMP180;19638;49.080;11.896;2023-02-28T19:53:19;97038.00;;;1.00
33267;BMP180;19638;49.080;11.896;2023-02-28T19:57:30;97040.00;;;1.00
33267;BMP180;19638;49.080;11.896;2023-02-28T20:01:38;97036.00;;;0.90
33267;BMP180;19638;49.080;11.896;2023-02-28T20:05:42;97040.00;;;0.90
33267;BMP180;19638;49.080;11.896;2023-02-28T20:09:46;97042.00;;;0.80
33267;BMP180;19638;49.080;11.896;2023-02-28T20:13:54;97033.00;;;0.80
33267;BMP180;19638;49.080;11.896;2023-02-28T20:18:01;97030.00;;;0.80
33267;BMP180;19638;49.080;11.896;2023-02-28T20:22:08;97027.00;;;0.70
33267;BMP180;19638;49.080;11.896;2023-02-28T20:26:12;97022.00;;;0.70
33267;BMP180;19638;49.080;11.896;2023-02-28T20:30:16;97015.00;;;0.60
33267;BMP180;19638;49.080;11.896;2023-02-28T20:34:24;97019.00;;;0.60
33267;BMP180;19638;49.080;11.896;2023-02-28T20:38:30;97019.00;;;0.50
33267;BMP180;19638;49.080;11.896;2023-02-28T20:42:33;97022.00;;;0.50
33267;BMP180;19638;49.080;11.896;2023-02-28T20:46:37;97026.00;;;0.50
33267;BMP180;19638;49.080;11.896;2023-02-28T20:50:48;97018.00;;;0.40
33267;BMP180;19638;49.080;11.896;2023-02-28T20:54:52;97023.00;;;0.40
33267;BMP180;19638;49.080;11.896;2023-02-28T20:58:55;97024.00;;;0.30
33267;BMP180;19638;49.080;11.896;2023-02-28T21:02:59;97029.00;;;0.30
33267;BMP180;19638;49.080;11.896;2023-02-28T21:07:03;97023.00;;;0.20
33267;BMP180;19638;49.080;11.896;2023-02-28T21:11:08;97023.00;;;0.20
33267;BMP180;19638;49.080;11.896;2023-02-28T21:15:11;97026.00;;;0.20
33267;BMP180;19638;49.080;11.896;2023-02-28T21:19:15;97027.00;;;0.20
33267;BMP180;19638;49.080;11.896;2023-02-28T21:23:20;97020.00;;;0.20
33267;BMP180;19638;49.080;11.896;2023-02-28T21:27:26;97017.00;;;0.30
33267;BMP180;19638;49.080;11.896;2023-02-28T21:31:32;97017.00;;;0.30
33267;BMP180;19638;49.080;11.896;2023-02-28T21:35:36;97023.00;;;0.30
33267;BMP180;19638;49.080;11.896;2023-02-28T21:39:40;97018.00;;;0.30
33267;BMP180;19638;49.080;11.896;2023-02-28T21:43:44;97020.00;;;0.30
33267;BMP180;19638;49.080;11.896;2023-02-28T21:47:50;97019.00;;;0.20
33267;BMP180;19638;49.080;11.896;2023-02-28T21:51:53;97021.00;;;0.20
33267;BMP180;19638;49.080;11.896;2023-02-28T21:56:00;97016.00;;;0.20
33267;BMP180;19638;49.080;11.896;2023-02-28T22:00:09;97009.00;;;0.20
33267;BMP180;19638;49.080;11.896;2023-02-28T22:04:15;97009.00;;;0.20
33267;BMP180;19638;49.080;11.896;2023-02-28T22:08:21;97013.00;;;0.20
33267;BMP180;19638;49.080;11.896;2023-02-28T22:12:35;97015.00;;;0.10
33267;BMP180;19638;49.080;11.896;2023-02-28T22:16:38;97024.00;;;0.10
33267;BMP180;19638;49.080;11.896;2023-02-28T22:21:03;97021.00;;;0.20
33267;BMP180;19638;49.080;11.896;2023-02-28T22:25:07;97010.00;;;0.20
33267;BMP180;19638;49.080;11.896;2023-02-28T22:29:12;97018.00;;;0.30
33267;BMP180;19638;49.080;11.896;2023-02-28T22:33:15;97015.00;;;0.20
33267;BMP180;19638;49.080;11.896;2023-02-28T22:37:19;97021.00;;;0.20
33267;BMP180;19638;49.080;11.896;2023-02-28T22:41:22;97018.00;;;0.30
33267;BMP180;19638;49.080;11.896;2023-02-28T22:45:33;97018.00;;;0.30
33267;BMP180;19638;49.080;11.896;2023-02-28T22:49:41;97018.00;;;0.30
33267;BMP180;19638;49.080;11.896;2023-02-28T22:53:46;97017.00;;;0.40
33267;BMP180;19638;49.080;11.896;2023-02-28T22:57:49;97013.00;;;0.40
33267;BMP180;19638;49.080;11.896;2023-02-28T23:01:56;97016.00;;;0.50
33267;BMP180;19638;49.080;11.896;2023-02-28T23:06:11;97013.00;;;0.50
33267;BMP180;19638;49.080;11.896;2023-02-28T23:10:16;97002.00;;;0.50
33267;BMP180;19638;49.080;11.896;2023-02-28T23:14:19;97013.00;;;0.50
33267;BMP180;19638;49.080;11.896;2023-02-28T23:18:26;97008.00;;;0.60
33267;BMP180;19638;49.080;11.896;2023-02-28T23:22:31;97007.00;;;0.60
33267;BMP180;19638;49.080;11.896;2023-02-28T23:26:34;96992.00;;;0.70
33267;BMP180;19638;49.080;11.896;2023-02-28T23:30:38;96993.00;;;0.70
33267;BMP180;19638;49.080;11.896;2023-02-28T23:34:46;96999.00;;;0.60
33267;BMP180;19638;49.080;11.896;2023-02-28T23:38:50;96991.00;;;0.60
33267;BMP180;19638;49.080;11.896;2023-02-28T23:42:54;96993.00;;;0.50
33267;BMP180;19638;49.080;11.896;2023-02-28T23:46:58;97000.00;;;0.50
33267;BMP180;19638;49.080;11.896;2023-02-28T23:51:04;97008.00;;;0.50
33267;BMP180;19638;49.080;11.896;2023-02-28T23:55:09;96997.00;;;0.50
33267;BMP180;19638;49.080;11.896;2023-02-28T23:59:16;97005.00;;;0.40
